Time;durP1;ratioP1;P1;durP2;ratioP2;P2;SDS_P1;SDS_P2;PMS_P1;PMS_P2;Temp;Humidity;BMP_temperature;BMP_pressure;BME280_temperature;BME280_humidity;BME280_pressure;Samples;Min_cycle;Max_cycle;Signal;HPM_P1;HPM_P2
2024/01/24 00:01:33;;;;;;;2.40;1.17;;;10.10;1.00;;;;;;4955482;28;20431;-68
2024/01/24 00:03:59;;;;;;;2.80;1.10;;;10.20;1.00;;;;;;4955258;28;20458;-70
2024/01/24 00:06:26;;;;;;;3.90;1.70;;;10.20;1.00;;;;;;4954378;28;20194;-69
2024/01/24 00:08:52;;;;;;;5.63;1.20;;;10.20;1.00;;;;;;4955369;29;20456;-68
2024/01/24 00:11:17;;;;;;;2.00;0.97;;;10.20;1.00;;;;;;4955404;29;20513;-68
2024/01/24 00:13:43;;;;;;;4.90;1.20;;;10.20;1.00;;;;;;4955371;29;20225;-68
2024/01/24 00:16:09;;;;;;;13.13;1.50;;;10.30;1.00;;;;;;4954993;28;20182;-68
2024/01/24 00:18:34;;;;;;;2.03;1.07;;;10.30;1.00;;;;;;4954079;28;20213;-69
2024/01/24 00:21:00;;;;;;;2.00;1.10;;;10.30;1.00;;;;;;4955096;29;20191;-68
2024/01/24 00:23:26;;;;;;;3.40;1.07;;;10.40;1.00;;;;;;4956818;29;20553;-69
2024/01/24 00:25:52;;;;;;;3.23;1.73;;;10.30;1.00;;;;;;4956781;28;20433;-69
2024/01/24 00:28:18;;;;;;;1.90;0.87;;;10.30;1.00;;;;;;4956391;29;20480;-70
2024/01/24 00:30:44;;;;;;;4.07;1.23;;;10.30;1.00;;;;;;4956465;28;20240;-69
2024/01/24 00:33:10;;;;;;;4.67;1.50;;;10.40;1.00;;;;;;4957163;28;20413;-69
2024/01/24 00:35:36;;;;;;;1.80;0.77;;;10.50;1.00;;;;;;4956468;28;20203;-70
2024/01/24 00:38:01;;;;;;;2.30;1.07;;;10.50;1.00;;;;;;4955835;28;20461;-70
2024/01/24 00:40:27;;;;;;;3.43;1.03;;;10.50;1.00;;;;;;4956789;28;20181;-70
2024/01/24 00:42:53;;;;;;;2.73;1.10;;;10.40;1.00;;;;;;4957204;28;20543;-70
2024/01/24 00:45:21;;;;;;;1.87;0.87;;;10.40;1.00;;;;;;4954614;28;20581;-71
2024/01/24 00:47:47;;;;;;;3.43;1.23;;;10.50;1.00;;;;;;4955630;29;20326;-70
2024/01/24 00:50:12;;;;;;;3.30;1.00;;;10.60;1.00;;;;;;4955304;28;20497;-71
2024/01/24 00:52:38;;;;;;;3.40;1.70;;;10.60;1.00;;;;;;4954778;28;20194;-69
2024/01/24 00:55:04;;;;;;;3.50;1.73;;;10.70;1.00;;;;;;4954531;29;20638;-69
2024/01/24 00:57:30;;;;;;;4.23;1.20;;;10.70;1.00;;;;;;4956250;29;20555;-69
2024/01/24 00:59:55;;;;;;;2.70;1.43;;;10.80;1.00;;;;;;4955932;28;20417;-68
2024/01/24 01:02:21;;;;;;;4.50;1.67;;;10.80;1.00;;;;;;4954213;29;20214;-69
2024/01/24 01:04:50;;;;;;;3.40;1.33;;;10.90;1.00;;;;;;4954343;28;20686;-69
2024/01/24 01:07:15;;;;;;;1.90;0.80;;;10.90;1.00;;;;;;4955007;29;20241;-69
2024/01/24 01:09:41;;;;;;;2.83;1.00;;;11.00;1.00;;;;;;4955029;28;20959;-68
2024/01/24 01:12:06;;;;;;;2.60;1.40;;;11.10;1.00;;;;;;4955153;28;20209;-70
2024/01/24 01:14:32;;;;;;;3.00;1.60;;;11.10;1.00;;;;;;4954575;28;20684;-70
2024/01/24 01:16:57;;;;;;;2.90;0.70;;;11.10;1.00;;;;;;4955734;28;20550;-70
2024/01/24 01:19:23;;;;;;;5.60;1.30;;;11.10;1.00;;;;;;4955192;28;20189;-70
2024/01/24 01:21:52;;;;;;;3.40;2.03;;;11.20;1.00;;;;;;4956502;28;20195;-70
2024/01/24 01:24:17;;;;;;;3.00;1.50;;;11.20;1.00;;;;;;4955677;29;20208;-72
2024/01/24 01:26:43;;;;;;;3.40;1.20;;;11.30;1.00;;;;;;4955371;28;20421;-69
2024/01/24 01:29:08;;;;;;;2.73;1.27;;;11.30;1.00;;;;;;4954836;29;20666;-68
2024/01/24 01:31:34;;;;;;;3.50;1.30;;;11.30;1.00;;;;;;4955042;29;20203;-69
2024/01/24 01:34:00;;;;;;;8.80;1.67;;;11.30;1.00;;;;;;4954690;29;20198;-69
2024/01/24 01:36:26;;;;;;;3.20;1.07;;;11.30;1.00;;;;;;4954690;28;20170;-69
2024/01/24 01:38:52;;;;;;;2.33;1.20;;;11.30;1.00;;;;;;4954602;29;20417;-70
2024/01/24 01:41:18;;;;;;;4.97;2.03;;;11.30;1.00;;;;;;4954865;28;20982;-70
2024/01/24 01:43:44;;;;;;;3.17;1.07;;;11.30;1.00;;;;;;4955131;29;20736;-69
2024/01/24 01:46:21;;;;;;;3.80;1.27;;;11.30;1.00;;;;;;4955135;29;20179;-69
2024/01/24 01:48:49;;;;;;;2.80;1.00;;;11.30;1.00;;;;;;4955162;28;20421;-69
2024/01/24 01:51:22;;;;;;;2.23;0.97;;;11.20;1.00;;;;;;4954010;29;20464;-69
2024/01/24 01:53:48;;;;;;;3.70;1.20;;;11.30;1.00;;;;;;4952660;29;20945;-70
2024/01/24 01:56:20;;;;;;;2.20;0.87;;;11.30;1.00;;;;;;4953668;29;20471;-70
2024/01/24 01:58:48;;;;;;;3.13;1.13;;;11.30;1.00;;;;;;4953918;29;20514;-70
2024/01/24 02:01:21;;;;;;;2.63;0.80;;;11.30;1.00;;;;;;4954062;28;20981;-70
2024/01/24 02:03:47;;;;;;;2.63;1.27;;;11.20;1.00;;;;;;4954002;28;20535;-70
2024/01/24 02:06:12;;;;;;;3.40;1.30;;;11.20;1.00;;;;;;4953439;28;20516;-70
2024/01/24 02:08:39;;;;;;;3.93;1.27;;;11.20;1.00;;;;;;4954261;29;20212;-70
2024/01/24 02:11:05;;;;;;;2.27;0.67;;;11.10;1.00;;;;;;4954340;28;20201;-70
2024/01/24 02:13:31;;;;;;;2.50;0.90;;;11.10;1.00;;;;;;4954106;28;20411;-71
2024/01/24 02:16:00;;;;;;;2.63;0.80;;;11.10;1.00;;;;;;4953933;28;20412;-71
2024/01/24 02:18:26;;;;;;;3.60;1.17;;;11.00;1.00;;;;;;4953880;28;20423;-71
2024/01/24 02:20:51;;;;;;;2.83;1.07;;;11.00;1.00;;;;;;4953779;29;20416;-70
2024/01/24 02:23:25;;;;;;;4.67;0.90;;;11.00;1.00;;;;;;4953803;29;20654;-70
2024/01/24 02:25:51;;;;;;;2.90;0.73;;;11.00;1.00;;;;;;4953881;28;20188;-71
2024/01/24 02:28:17;;;;;;;3.40;0.77;;;10.90;1.00;;;;;;4953760;29;20431;-70
2024/01/24 02:30:42;;;;;;;2.37;1.00;;;10.80;1.00;;;;;;4953888;29;20462;-70
2024/01/24 02:33:08;;;;;;;2.53;0.70;;;10.80;1.00;;;;;;4954183;28;20549;-70
2024/01/24 02:35:34;;;;;;;2.30;0.90;;;10.80;1.00;;;;;;4953972;28;20205;-70
2024/01/24 02:38:00;;;;;;;2.53;0.67;;;10.70;1.00;;;;;;4953885;28;20258;-70
2024/01/24 02:40:26;;;;;;;2.10;0.90;;;10.70;1.00;;;;;;4954148;28;20445;-70
2024/01/24 02:42:51;;;;;;;4.23;0.87;;;10.70;1.20;;;;;;4953935;28;20178;-70
2024/01/24 02:45:17;;;;;;;2.30;1.20;;;10.70;1.20;;;;;;4953498;28;20203;-71
2024/01/24 02:47:43;;;;;;;1.80;0.73;;;10.70;1.60;;;;;;4953905;28;20671;-69
2024/01/24 02:50:09;;;;;;;7.40;0.90;;;10.70;1.90;;;;;;4953747;29;20591;-69
2024/01/24 02:52:34;;;;;;;1.70;0.60;;;10.60;2.30;;;;;;4953936;29;20318;-69
2024/01/24 02:55:00;;;;;;;1.77;0.80;;;10.60;2.70;;;;;;4954223;28;20581;-69
2024/01/24 02:57:26;;;;;;;3.27;1.40;;;10.60;3.20;;;;;;4952412;28;20228;-69
2024/01/24 02:59:51;;;;;;;2.43;0.57;;;10.80;2.60;;;;;;4953499;28;20182;-69
2024/01/24 03:02:17;;;;;;;2.67;0.83;;;10.80;2.10;;;;;;4953482;29;20210;-69
2024/01/24 03:04:42;;;;;;;2.67;0.80;;;10.80;2.00;;;;;;4952993;28;20218;-70
2024/01/24 03:07:08;;;;;;;1.90;0.80;;;10.70;2.30;;;;;;4953294;28;20186;-69
2024/01/24 03:09:34;;;;;;;4.90;1.23;;;10.70;2.60;;;;;;4952055;28;20597;-70
2024/01/24 03:12:00;;;;;;;2.53;1.00;;;10.70;3.00;;;;;;4953399;28;20465;-70
2024/01/24 03:14:25;;;;;;;2.00;0.83;;;10.60;3.30;;;;;;4953099;28;20202;-70
2024/01/24 03:16:51;;;;;;;3.60;0.80;;;10.50;3.90;;;;;;4955134;28;20180;-69
2024/01/24 03:19:16;;;;;;;3.10;1.20;;;10.50;3.80;;;;;;4959731;29;20174;-69
2024/01/24 03:21:42;;;;;;;2.57;1.00;;;10.60;3.80;;;;;;4959878;29;20186;-69
2024/01/24 03:24:08;;;;;;;1.77;0.73;;;10.60;3.70;;;;;;4957324;29;20269;-70
2024/01/24 03:26:34;;;;;;;2.47;0.90;;;10.70;3.30;;;;;;4956949;29;20419;-70
2024/01/24 03:29:00;;;;;;;2.43;1.37;;;10.70;3.10;;;;;;4955438;29;20186;-69
2024/01/24 03:31:25;;;;;;;1.90;0.90;;;10.70;3.20;;;;;;4957338;28;20465;-70
2024/01/24 03:33:51;;;;;;;6.20;1.73;;;10.60;3.90;;;;;;4956987;29;20198;-70
2024/01/24 03:36:17;;;;;;;1.97;0.70;;;10.70;3.70;;;;;;4956830;28;20237;-69
2024/01/24 03:38:43;;;;;;;3.03;1.70;;;10.80;3.40;;;;;;4957053;28;20449;-69
2024/01/24 03:41:09;;;;;;;2.60;0.80;;;10.80;3.20;;;;;;4956494;29;20603;-69
2024/01/24 03:43:40;;;;;;;1.67;0.70;;;10.80;3.40;;;;;;4956029;28;20442;-69
2024/01/24 03:46:07;;;;;;;2.20;0.97;;;10.90;3.30;;;;;;4955809;28;20308;-68
2024/01/24 03:48:32;;;;;;;2.47;1.40;;;10.90;3.40;;;;;;4954537;28;20525;-69
2024/01/24 03:50:58;;;;;;;2.37;0.90;;;10.80;3.70;;;;;;4955878;28;20874;-69
2024/01/24 03:53:24;;;;;;;2.00;0.90;;;10.80;4.00;;;;;;4955637;29;20204;-68
2024/01/24 03:55:50;;;;;;;7.90;1.27;;;10.80;4.00;;;;;;4954484;28;20698;-69
2024/01/24 03:58:16;;;;;;;2.93;1.10;;;10.70;4.30;;;;;;4954627;28;20182;-69
2024/01/24 04:00:42;;;;;;;2.60;1.07;;;10.70;4.70;;;;;;4955516;28;20518;-69
2024/01/24 04:03:07;;;;;;;2.90;1.10;;;10.70;5.20;;;;;;4954441;28;20405;-69
2024/01/24 04:05:33;;;;;;;4.63;1.30;;;10.70;5.10;;;;;;4955383;28;20296;-69
2024/01/24 04:07:59;;;;;;;2.20;0.93;;;10.80;5.20;;;;;;4956032;29;20188;-69
2024/01/24 04:10:25;;;;;;;3.40;1.77;;;10.80;5.20;;;;;;4954147;29;20186;-69
2024/01/24 04:12:50;;;;;;;2.80;1.33;;;10.80;5.00;;;;;;4956175;28;20418;-70
2024/01/24 04:15:16;;;;;;;3.30;1.40;;;10.80;5.00;;;;;;4953957;28;20586;-70
2024/01/24 04:17:42;;;;;;;2.53;1.07;;;10.80;5.80;;;;;;4955435;29;20188;-70
2024/01/24 04:20:08;;;;;;;2.00;0.97;;;10.90;5.20;;;;;;4955375;29;20186;-70
2024/01/24 04:22:35;;;;;;;2.07;0.80;;;10.90;5.00;;;;;;4955406;29;20593;-70
2024/01/24 04:25:01;;;;;;;4.83;0.70;;;11.00;4.90;;;;;;4954906;28;20446;-70
2024/01/24 04:27:27;;;;;;;2.37;1.23;;;11.00;4.70;;;;;;4954956;28;20469;-70
2024/01/24 04:29:53;;;;;;;4.00;1.17;;;11.10;4.90;;;;;;4955188;29;20485;-70
2024/01/24 04:32:19;;;;;;;2.50;1.10;;;11.20;4.30;;;;;;4955078;29;20479;-70
2024/01/24 04:34:45;;;;;;;2.30;1.00;;;11.20;4.40;;;;;;4954862;29;20492;-69
2024/01/24 04:37:11;;;;;;;3.27;1.20;;;11.20;4.10;;;;;;4955084;29;20413;-70
2024/01/24 04:39:37;;;;;;;8.00;1.47;;;11.20;4.40;;;;;;4953755;29;20422;-70
2024/01/24 04:42:03;;;;;;;2.73;0.90;;;11.20;4.30;;;;;;4955101;29;20189;-70
2024/01/24 04:44:30;;;;;;;2.10;0.83;;;11.20;4.40;;;;;;4954879;28;20496;-70
2024/01/24 04:46:55;;;;;;;2.77;1.00;;;11.30;4.30;;;;;;4955091;29;20506;-71
2024/01/24 04:49:21;;;;;;;2.40;1.10;;;11.30;4.50;;;;;;4955116;29;20958;-70
2024/01/24 04:51:48;;;;;;;2.70;1.17;;;11.30;4.90;;;;;;4954919;28;20204;-75
2024/01/24 04:54:15;;;;;;;2.40;0.77;;;11.30;4.80;;;;;;4954549;29;20440;-69
2024/01/24 04:56:45;;;;;;;3.07;1.20;;;11.30;5.10;;;;;;4953310;29;20978;-69
2024/01/24 04:59:11;;;;;;;3.30;1.10;;;11.30;5.90;;;;;;4954931;28;20423;-69
2024/01/24 05:01:37;;;;;;;1.90;0.80;;;11.30;5.20;;;;;;4954697;28;20916;-68
2024/01/24 05:04:03;;;;;;;2.67;0.97;;;11.30;5.10;;;;;;4953246;29;20978;-68
2024/01/24 05:06:29;;;;;;;2.30;0.70;;;11.30;5.00;;;;;;4953288;28;20425;-69
2024/01/24 05:08:54;;;;;;;2.73;0.90;;;11.40;5.00;;;;;;4953428;28;20723;-70
2024/01/24 05:11:20;;;;;;;1.73;0.93;;;11.40;5.40;;;;;;4954640;28;20553;-69
2024/01/24 05:13:48;;;;;;;2.40;1.00;;;11.40;5.80;;;;;;4954652;29;20246;-69
2024/01/24 05:16:14;;;;;;;2.57;1.20;;;11.40;5.50;;;;;;4954493;28;20187;-69
2024/01/24 05:18:39;;;;;;;2.43;0.83;;;11.40;6.20;;;;;;4953224;28;20978;-69
2024/01/24 05:21:05;;;;;;;2.70;1.20;;;11.40;6.20;;;;;;4954287;28;20524;-68
2024/01/24 05:23:31;;;;;;;2.60;1.17;;;11.50;6.10;;;;;;4954720;28;20184;-69
2024/01/24 05:25:57;;;;;;;4.43;0.93;;;11.50;5.80;;;;;;4953961;28;20417;-70
2024/01/24 05:28:23;;;;;;;2.17;1.00;;;11.60;6.00;;;;;;4952794;29;20426;-69
2024/01/24 05:30:48;;;;;;;1.80;0.90;;;11.60;5.50;;;;;;4953784;28;20223;-69
2024/01/24 05:33:14;;;;;;;2.70;1.27;;;11.60;5.50;;;;;;4954000;29;20244;-69
2024/01/24 05:35:43;;;;;;;2.33;0.87;;;;;;;;;;4953836;28;20187;-69
2024/01/24 05:38:09;;;;;;;2.50;0.93;;;11.60;5.00;;;;;;4954035;28;20189;-68
2024/01/24 05:40:34;;;;;;;2.30;1.27;;;11.60;5.70;;;;;;4953893;28;20909;-69
2024/01/24 05:43:02;;;;;;;2.63;1.27;;;11.70;5.80;;;;;;4954659;29;20182;-69
2024/01/24 05:45:28;;;;;;;3.10;1.20;;;11.70;5.60;;;;;;4954356;28;20284;-69
2024/01/24 05:47:53;;;;;;;8.20;1.57;;;11.70;5.50;;;;;;4953905;29;20456;-69
2024/01/24 05:50:19;;;;;;;2.50;1.30;;;11.80;5.40;;;;;;4954030;28;20190;-67
2024/01/24 05:52:45;;;;;;;3.30;0.90;;;11.80;5.20;;;;;;4952384;29;20213;-67
2024/01/24 05:55:14;;;;;;;2.07;0.87;;;11.80;5.20;;;;;;4953811;28;20204;-68
2024/01/24 05:57:43;;;;;;;2.83;1.00;;;11.70;5.50;;;;;;4954078;29;20202;-68
2024/01/24 06:00:13;;;;;;;2.83;1.30;;;11.80;5.60;;;;;;4954025;28;20428;-70
2024/01/24 06:02:39;;;;;;;4.70;1.20;;;11.80;5.70;;;;;;4954366;28;20429;-70
2024/01/24 06:05:05;;;;;;;2.00;0.77;;;11.70;5.80;;;;;;4953905;28;20462;-69
2024/01/24 06:07:31;;;;;;;3.23;1.23;;;11.80;6.20;;;;;;4954075;29;20445;-69
2024/01/24 06:09:57;;;;;;;3.30;1.50;;;11.80;6.00;;;;;;4954387;29;20422;-70
2024/01/24 06:12:23;;;;;;;2.53;0.83;;;11.70;6.40;;;;;;4954387;28;20951;-69
2024/01/24 06:14:49;;;;;;;4.43;1.20;;;11.80;6.40;;;;;;4954021;29;20442;-70
2024/01/24 06:17:15;;;;;;;3.70;1.30;;;11.80;6.50;;;;;;4954229;29;20596;-69
2024/01/24 06:19:43;;;;;;;2.30;1.43;;;11.80;6.10;;;;;;4953691;28;20467;-69
2024/01/24 06:22:14;;;;;;;1.90;0.73;;;11.80;6.10;;;;;;4953482;29;20427;-69
2024/01/24 06:24:40;;;;;;;2.17;0.80;;;11.80;6.40;;;;;;4953580;28;20455;-68
2024/01/24 06:27:05;;;;;;;3.80;1.27;;;11.80;6.40;;;;;;4953945;29;21051;-67
2024/01/24 06:29:31;;;;;;;1.80;0.90;;;11.90;6.10;;;;;;4952170;28;20178;-70
2024/01/24 06:31:57;;;;;;;2.20;0.90;;;11.90;6.30;;;;;;4952120;29;20297;-70
2024/01/24 06:34:22;;;;;;;3.00;1.00;;;11.90;5.80;;;;;;4953148;28;20485;-70
2024/01/24 06:36:49;;;;;;;3.10;1.00;;;11.90;6.00;;;;;;4953390;28;20883;-69
2024/01/24 06:39:14;;;;;;;1.90;1.13;;;12.00;6.00;;;;;;4953662;28;20190;-69
2024/01/24 06:41:40;;;;;;;3.07;1.00;;;12.00;6.20;;;;;;4953300;28;20417;-69
2024/01/24 06:44:06;;;;;;;1.90;1.00;;;12.00;6.20;;;;;;4951914;28;20245;-68
2024/01/24 06:46:33;;;;;;;2.67;1.00;;;12.00;6.00;;;;;;4953140;28;20943;-69
2024/01/24 06:48:58;;;;;;;2.03;0.80;;;12.10;5.90;;;;;;4951831;28;20189;-69
2024/01/24 06:51:24;;;;;;;1.70;0.70;;;12.10;5.80;;;;;;4949795;28;20472;-69
2024/01/24 06:53:50;;;;;;;1.93;0.80;;;12.10;5.60;;;;;;4939008;29;20445;-69
2024/01/24 06:56:15;;;;;;;6.43;0.90;;;12.20;5.60;;;;;;4937998;29;20183;-68
2024/01/24 06:58:41;;;;;;;3.40;1.30;;;12.20;5.40;;;;;;4956862;28;20195;-68
2024/01/24 07:01:06;;;;;;;2.10;0.90;;;12.20;5.10;;;;;;4956959;28;20212;-69
2024/01/24 07:03:32;;;;;;;1.90;0.90;;;12.20;5.30;;;;;;4970776;23;20208;-68
2024/01/24 07:05:58;;;;;;;1.80;1.00;;;12.20;5.40;;;;;;4974274;28;20630;-68
2024/01/24 07:08:24;;;;;;;5.20;1.30;;;12.30;5.40;;;;;;4977031;28;20443;-67
2024/01/24 07:10:50;;;;;;;1.83;0.80;;;12.30;5.10;;;;;;4958968;28;20216;-68
2024/01/24 07:13:15;;;;;;;2.13;1.00;;;12.30;4.90;;;;;;4958402;28;20174;-67
2024/01/24 07:15:42;;;;;;;2.10;0.93;;;12.30;4.90;;;;;;4958151;28;20276;-67
2024/01/24 07:18:08;;;;;;;3.73;0.87;;;12.30;5.10;;;;;;4957810;28;20173;-68
2024/01/24 07:20:33;;;;;;;2.30;0.93;;;12.30;4.80;;;;;;4957668;28;20414;-68
2024/01/24 07:22:59;;;;;;;5.20;1.30;;;12.30;4.80;;;;;;4957910;28;20180;-69
2024/01/24 07:25:24;;;;;;;3.07;1.40;;;12.40;4.40;;;;;;4957955;28;20200;-70
2024/01/24 07:27:50;;;;;;;2.13;0.93;;;12.30;4.60;;;;;;4958071;28;20217;-69
2024/01/24 07:30:16;;;;;;;2.13;1.07;;;12.30;4.80;;;;;;4958450;29;20182;-69
2024/01/24 07:32:42;;;;;;;3.00;1.47;;;12.40;4.70;;;;;;4957126;28;20241;-68
2024/01/24 07:35:11;;;;;;;2.57;1.17;;;12.40;4.50;;;;;;4957922;28;20438;-70
2024/01/24 07:37:37;;;;;;;2.83;1.33;;;12.40;4.40;;;;;;4969509;28;20272;-70
2024/01/24 07:40:03;;;;;;;1.80;0.70;;;12.40;4.70;;;;;;4973030;28;20461;-71
2024/01/24 07:42:29;;;;;;;4.30;1.67;;;12.40;4.10;;;;;;4973548;28;20281;-70
2024/01/24 07:44:55;;;;;;;1.77;0.77;;;12.50;3.80;;;;;;4971137;28;20525;-69
2024/01/24 07:47:20;;;;;;;2.40;0.90;;;12.50;3.10;;;;;;4954343;28;20445;-71
2024/01/24 07:49:46;;;;;;;2.00;0.80;;;12.50;2.50;;;;;;4954669;28;20194;-70
2024/01/24 07:52:12;;;;;;;2.27;0.70;;;12.50;2.50;;;;;;4953870;28;20227;-74
2024/01/24 07:54:37;;;;;;;1.93;0.80;;;12.50;2.40;;;;;;4952669;29;20206;-69
2024/01/24 07:57:03;;;;;;;2.60;1.00;;;12.60;2.50;;;;;;4953186;28;20252;-69
2024/01/24 07:59:30;;;;;;;2.13;1.00;;;12.60;2.50;;;;;;4953731;28;20189;-69
2024/01/24 08:01:55;;;;;;;1.97;0.70;;;12.60;2.00;;;;;;4951805;28;20445;-69
2024/01/24 08:04:21;;;;;;;1.70;0.57;;;12.60;1.80;;;;;;4952510;28;20989;-69
2024/01/24 08:06:47;;;;;;;1.77;0.70;;;12.60;1.40;;;;;;4952803;29;20189;-69
2024/01/24 08:09:13;;;;;;;1.70;0.60;;;12.70;1.00;;;;;;4953956;28;20221;-69
2024/01/24 08:11:39;;;;;;;2.63;1.07;;;12.80;1.00;;;;;;4953398;28;20756;-69
2024/01/24 08:14:05;;;;;;;2.13;0.80;;;12.80;1.00;;;;;;4952008;28;20472;-69
2024/01/24 08:16:31;;;;;;;2.20;0.80;;;12.80;1.00;;;;;;4954624;28;20464;-69
2024/01/24 08:19:00;;;;;;;1.90;0.73;;;12.80;1.00;;;;;;4954266;28;20689;-69
2024/01/24 08:21:27;;;;;;;2.00;0.90;;;12.80;1.00;;;;;;4953604;28;20436;-68
2024/01/24 08:23:52;;;;;;;3.53;0.80;;;12.90;1.00;;;;;;4953781;29;20994;-70
2024/01/24 08:26:18;;;;;;;1.50;0.50;;;12.90;1.00;;;;;;4953707;29;20512;-69
2024/01/24 08:28:44;;;;;;;1.67;0.70;;;13.00;1.00;;;;;;4953439;29;20196;-69
2024/01/24 08:31:10;;;;;;;2.03;0.60;;;13.00;1.00;;;;;;4956697;28;20213;-68
2024/01/24 08:33:36;;;;;;;1.70;0.50;;;13.00;1.00;;;;;;4957714;28;20186;-68
2024/01/24 08:36:02;;;;;;;1.50;0.50;;;13.00;1.00;;;;;;4957144;28;20860;-68
2024/01/24 08:38:28;;;;;;;1.83;0.70;;;13.10;1.00;;;;;;4956449;29;20196;-66
2024/01/24 08:40:54;;;;;;;4.93;0.80;;;13.10;1.00;;;;;;4958103;28;20272;-67
2024/01/24 08:43:19;;;;;;;1.97;0.60;;;13.20;1.00;;;;;;4956859;29;20441;-69
2024/01/24 08:45:45;;;;;;;2.37;0.60;;;13.30;1.00;;;;;;4956472;28;20245;-69
2024/01/24 08:48:10;;;;;;;1.80;0.73;;;13.30;1.00;;;;;;4956826;29;20264;-68
2024/01/24 08:50:36;;;;;;;1.57;0.50;;;13.30;1.00;;;;;;4955929;29;20186;-68
2024/01/24 08:53:02;;;;;;;2.00;0.70;;;13.30;1.00;;;;;;4956149;29;20178;-68
2024/01/24 08:55:28;;;;;;;1.60;0.50;;;13.40;1.00;;;;;;4954751;29;20233;-68
2024/01/24 08:57:54;;;;;;;1.50;0.60;;;13.40;1.00;;;;;;4956725;28;20417;-69
2024/01/24 09:00:19;;;;;;;1.60;0.50;;;13.40;1.00;;;;;;4955862;29;20185;-67
2024/01/24 09:02:46;;;;;;;2.73;0.87;;;13.40;1.00;;;;;;4956050;29;20569;-68
2024/01/24 09:05:12;;;;;;;2.57;1.00;;;13.50;1.00;;;;;;4955690;28;20209;-69
2024/01/24 09:07:37;;;;;;;2.53;0.70;;;13.60;1.00;;;;;;4955943;28;20433;-68
2024/01/24 09:10:04;;;;;;;2.10;0.60;;;13.60;1.00;;;;;;4954382;29;20269;-66
2024/01/24 09:12:30;;;;;;;1.63;0.67;;;13.70;1.00;;;;;;4955850;28;20289;-67
2024/01/24 09:14:56;;;;;;;1.80;0.50;;;13.60;1.00;;;;;;4954234;28;20452;-68
2024/01/24 09:17:21;;;;;;;2.17;0.60;;;13.70;1.00;;;;;;4955878;29;20410;-67
2024/01/24 09:19:47;;;;;;;1.53;0.40;;;13.70;1.00;;;;;;4955510;28;20469;-66
2024/01/24 09:22:13;;;;;;;1.50;0.50;;;13.80;1.00;;;;;;4955791;29;20174;-67
2024/01/24 09:24:38;;;;;;;1.60;0.53;;;13.90;1.00;;;;;;4953796;28;20229;-69
2024/01/24 09:27:04;;;;;;;1.80;0.50;;;13.90;1.00;;;;;;4954205;28;20182;-68
2024/01/24 09:29:30;;;;;;;1.50;0.40;;;13.90;1.00;;;;;;4955067;28;20188;-69
2024/01/24 09:31:56;;;;;;;2.83;0.67;;;13.80;1.00;;;;;;4956306;29;20736;-68
2024/01/24 09:34:23;;;;;;;1.50;0.60;;;13.80;1.00;;;;;;4956000;28;20441;-68
2024/01/24 09:36:49;;;;;;;1.50;0.50;;;13.80;1.00;;;;;;4956509;28;20211;-68
2024/01/24 09:39:14;;;;;;;1.43;0.43;;;13.70;1.00;;;;;;4956130;28;20424;-68
2024/01/24 09:41:43;;;;;;;1.60;0.50;;;13.70;1.00;;;;;;4955167;29;20189;-68
2024/01/24 09:44:09;;;;;;;1.47;0.50;;;13.70;1.00;;;;;;4954677;28;20216;-68
2024/01/24 09:46:42;;;;;;;1.60;0.53;;;13.70;1.00;;;;;;4954162;29;20417;-66
2024/01/24 09:49:08;;;;;;;2.00;1.13;;;13.70;1.00;;;;;;4955010;28;20580;-67
2024/01/24 09:51:35;;;;;;;1.60;0.50;;;13.80;1.00;;;;;;4954666;28;20465;-68
2024/01/24 09:54:07;;;;;;;1.60;0.60;;;13.90;1.00;;;;;;4954928;28;20438;-69
2024/01/24 09:56:37;;;;;;;1.50;0.50;;;13.80;1.00;;;;;;4954669;28;20969;-68
2024/01/24 09:59:04;;;;;;;2.13;0.60;;;13.80;1.00;;;;;;4954871;28;20432;-68
2024/01/24 10:01:38;;;;;;;2.37;1.30;;;13.80;1.00;;;;;;4954940;28;20477;-68
2024/01/24 10:04:05;;;;;;;1.47;0.40;;;13.70;1.00;;;;;;4954748;28;20456;-67
2024/01/24 10:06:32;;;;;;;1.57;0.50;;;13.70;1.00;;;;;;4955094;28;20422;-67
2024/01/24 10:08:58;;;;;;;2.37;0.80;;;13.80;1.00;;;;;;4954885;28;20425;-68
2024/01/24 10:11:24;;;;;;;1.60;0.60;;;13.80;1.00;;;;;;4954530;28;20461;-67
2024/01/24 10:13:50;;;;;;;1.50;0.50;;;13.90;1.00;;;;;;4954893;28;20449;-68
2024/01/24 10:16:18;;;;;;;1.73;0.70;;;13.70;1.00;;;;;;4954631;29;20794;-67
2024/01/24 10:18:45;;;;;;;1.60;0.60;;;13.70;1.00;;;;;;4955094;28;20286;-68
2024/01/24 10:21:13;;;;;;;1.70;0.60;;;13.80;1.00;;;;;;4955926;28;20418;-67
2024/01/24 10:23:41;;;;;;;1.50;0.50;;;13.80;1.00;;;;;;4956215;28;20421;-69
2024/01/24 10:26:08;;;;;;;1.63;0.50;;;13.80;1.00;;;;;;4957109;28;20912;-69
2024/01/24 10:28:34;;;;;;;3.80;1.40;;;14.00;1.00;;;;;;4959841;28;20781;-68
2024/01/24 10:31:02;;;;;;;2.60;1.00;;;14.20;1.00;;;;;;4959635;29;20457;-67
2024/01/24 10:33:31;;;;;;;1.80;0.80;;;14.30;1.00;;;;;;4958790;28;20500;-68
2024/01/24 10:35:58;;;;;;;3.20;1.00;;;14.50;1.00;;;;;;4958302;29;20414;-68
2024/01/24 10:38:31;;;;;;;1.50;0.50;;;14.30;1.00;;;;;;4958344;28;20417;-68
2024/01/24 10:41:01;;;;;;;4.87;1.47;;;14.30;1.00;;;;;;4958372;29;20913;-67
2024/01/24 10:43:28;;;;;;;2.70;0.90;;;14.10;1.00;;;;;;4957718;28;20418;-67
2024/01/24 10:45:56;;;;;;;3.43;0.90;;;14.00;1.00;;;;;;4957992;28;20436;-68
2024/01/24 10:48:22;;;;;;;2.43;1.10;;;14.00;1.00;;;;;;4958327;28;20456;-67
2024/01/24 10:50:48;;;;;;;3.80;1.20;;;13.90;1.00;;;;;;4957772;28;20983;-68
2024/01/24 10:53:14;;;;;;;1.60;0.70;;;14.00;1.00;;;;;;4959310;28;20527;-68
2024/01/24 10:55:42;;;;;;;8.50;3.40;;;14.10;1.00;;;;;;4959784;28;20440;-70
2024/01/24 10:58:11;;;;;;;3.03;1.13;;;14.30;1.00;;;;;;4960337;29;20409;-69
2024/01/24 11:00:41;;;;;;;2.40;1.03;;;14.30;1.00;;;;;;4960013;28;20413;-68
2024/01/24 11:03:07;;;;;;;2.63;1.10;;;14.20;1.00;;;;;;4961122;28;20421;-69
2024/01/24 11:05:43;;;;;;;2.17;0.80;;;14.10;1.00;;;;;;4960232;29;20457;-68
2024/01/24 11:08:19;;;;;;;3.07;1.60;;;14.00;1.00;;;;;;4961312;28;20476;-69
2024/01/24 11:10:46;;;;;;;2.00;0.80;;;13.90;1.00;;;;;;4960387;28;20445;-69
2024/01/24 11:13:12;;;;;;;1.90;0.50;;;13.90;1.00;;;;;;4965709;28;20452;-69
2024/01/24 11:15:38;;;;;;;1.40;0.40;;;13.80;1.10;;;;;;4963321;28;20631;-70
2024/01/24 11:18:28;;;;;;;2.00;0.60;;;13.70;1.70;;;;;;4964045;28;20213;-70
2024/01/24 11:20:56;;;;;;;1.73;0.70;;;13.60;2.30;;;;;;4961893;28;20433;-68
2024/01/24 11:23:43;;;;;;;1.60;0.60;;;13.60;3.10;;;;;;4956883;28;20429;-68
2024/01/24 11:26:10;;;;;;;1.70;0.50;;;13.80;2.30;;;;;;4954062;28;20978;-68
2024/01/24 11:28:36;;;;;;;2.17;0.70;;;14.20;1.20;;;;;;4955869;28;20449;-69
2024/01/24 11:31:03;;;;;;;3.10;0.63;;;14.30;1.00;;;;;;4954912;28;20477;-68
2024/01/24 11:33:28;;;;;;;1.70;0.77;;;14.50;1.00;;;;;;4954373;28;20882;-68
2024/01/24 11:35:55;;;;;;;2.03;0.60;;;14.70;1.00;;;;;;4953964;29;20436;-69
2024/01/24 11:38:24;;;;;;;3.43;0.73;;;14.60;1.00;;;;;;4953406;28;20192;-68
2024/01/24 11:41:02;;;;;;;1.70;0.67;;;14.70;1.00;;;;;;4955849;29;20476;-68
2024/01/24 11:43:33;;;;;;;2.00;0.90;;;14.70;1.00;;;;;;4957916;28;20409;-68
2024/01/24 11:46:06;;;;;;;1.50;0.50;;;14.50;1.00;;;;;;4957152;28;20968;-68
2024/01/24 11:48:34;;;;;;;1.93;1.10;;;14.50;1.00;;;;;;4957239;28;20425;-70
2024/01/24 11:51:05;;;;;;;2.37;0.80;;;14.40;1.00;;;;;;4956658;28;20548;-68
2024/01/24 11:53:30;;;;;;;2.33;0.80;;;14.40;1.00;;;;;;4955432;29;20462;-67
2024/01/24 11:56:04;;;;;;;4.47;1.53;;;14.30;1.00;;;;;;4957760;28;20418;-69
2024/01/24 11:58:30;;;;;;;1.50;0.50;;;14.20;1.00;;;;;;4958512;28;20202;-69
2024/01/24 12:01:02;;;;;;;2.10;1.00;;;14.10;1.00;;;;;;4989718;28;20512;-68
2024/01/24 12:03:27;;;;;;;1.50;0.53;;;14.00;1.00;;;;;;4958697;28;20421;-68
2024/01/24 12:05:53;;;;;;;2.23;0.50;;;14.10;1.00;;;;;;4957766;29;20452;-69
2024/01/24 12:08:20;;;;;;;2.10;0.70;;;14.00;1.00;;;;;;4988787;28;20186;-67
2024/01/24 12:10:45;;;;;;;1.40;0.40;;;14.00;1.10;;;;;;4957164;28;20663;-67
2024/01/24 12:13:12;;;;;;;2.10;0.67;;;14.00;1.20;;;;;;4959149;28;20467;-68
2024/01/24 12:15:38;;;;;;;2.33;0.87;;;13.90;1.40;;;;;;4975998;28;20204;-67
2024/01/24 12:18:05;;;;;;;6.70;0.80;;;13.80;2.10;;;;;;4974823;28;20503;-68
2024/01/24 12:20:34;;;;;;;1.60;0.60;;;13.90;1.90;;;;;;4977056;28;20511;-68
2024/01/24 12:23:03;;;;;;;1.50;0.50;;;13.90;1.90;;;;;;4978585;28;20428;-68
2024/01/24 12:25:29;;;;;;;2.30;0.80;;;14.00;1.40;;;;;;4976830;28;20761;-69
2024/01/24 12:27:57;;;;;;;3.10;0.77;;;14.20;1.00;;;;;;4976803;28;20976;-69
2024/01/24 12:30:25;;;;;;;1.80;0.80;;;14.30;1.00;;;;;;4976356;28;20427;-68
2024/01/24 12:32:55;;;;;;;1.80;0.60;;;14.40;1.00;;;;;;4975794;28;20453;-68
2024/01/24 12:35:20;;;;;;;1.60;0.60;;;14.20;1.00;;;;;;4976321;28;20441;-69
2024/01/24 12:37:46;;;;;;;5.23;0.93;;;14.20;1.00;;;;;;4976373;28;20432;-68
2024/01/24 12:40:12;;;;;;;1.40;0.40;;;14.20;1.00;;;;;;4976525;28;20260;-69
2024/01/24 12:42:38;;;;;;;2.00;0.90;;;14.20;1.00;;;;;;4976381;28;20259;-70
2024/01/24 12:45:13;;;;;;;1.57;0.57;;;14.30;1.00;;;;;;4976769;28;20204;-69
2024/01/24 12:47:41;;;;;;;2.27;0.83;;;14.30;1.00;;;;;;4977836;28;20760;-68
2024/01/24 12:50:10;;;;;;;1.83;0.60;;;14.30;1.00;;;;;;4976058;28;20813;-68
2024/01/24 12:52:39;;;;;;;1.97;0.50;;;14.20;1.00;;;;;;4976848;28;20879;-69
2024/01/24 12:55:06;;;;;;;1.73;0.50;;;14.20;1.00;;;;;;4977100;28;20572;-69